Time;durP1;ratioP1;P1;durP2;ratioP2;P2;SDS_P1;SDS_P2;PMS_P1;PMS_P2;Temp;Humidity;BMP_temperature;BMP_pressure;BME280_temperature;BME280_humidity;BME280_pressure;Samples;Min_cycle;Max_cycle;Signal;HPM_P1;HPM_P2
2022/08/24 03:00:40;;;;;;;38.83;30.75;;;18.20;99.90;;;;;;5792912;23;20052;-84
2022/08/24 03:03:07;;;;;;;35.38;29.00;;;18.20;99.90;;;;;;4901396;29;20068;-83
2022/08/24 03:05:32;;;;;;;34.35;27.33;;;18.20;99.90;;;;;;4903441;29;20039;-84
2022/08/24 03:07:58;;;;;;;41.33;32.00;;;18.20;99.90;;;;;;4903317;29;20051;-85
2022/08/24 03:10:24;;;;;;;50.03;35.63;;;18.20;99.90;;;;;;4904234;29;20048;-85
2022/08/24 03:12:50;;;;;;;46.88;36.33;;;18.20;99.90;;;;;;4920408;29;20071;-85
2022/08/24 03:15:17;;;;;;;49.38;35.08;;;18.10;99.90;;;;;;4903276;29;20048;-85
2022/08/24 03:17:43;;;;;;;43.95;33.42;;;18.10;99.90;;;;;;4903438;29;20052;-84
2022/08/24 03:20:13;;;;;;;49.85;36.55;;;18.10;99.90;;;;;;4903330;29;20088;-85
2022/08/24 03:22:39;;;;;;;49.92;36.20;;;18.10;99.90;;;;;;4904171;29;20372;-84
2022/08/24 03:25:06;;;;;;;45.33;33.45;;;18.20;99.90;;;;;;4903192;29;20373;-85
2022/08/24 03:27:31;;;;;;;35.05;27.30;;;18.20;99.90;;;;;;4887592;29;20131;-86
2022/08/24 03:29:57;;;;;;;37.67;28.48;;;18.20;99.90;;;;;;4902999;29;20507;-85
2022/08/24 03:32:23;;;;;;;34.55;27.95;;;18.20;99.90;;;;;;4919998;29;20044;-85
2022/08/24 03:34:48;;;;;;;34.83;27.77;;;18.20;99.90;;;;;;4902982;29;20063;-84
2022/08/24 03:37:15;;;;;;;33.33;27.33;;;18.10;99.90;;;;;;4903154;29;20135;-84
2022/08/24 03:39:40;;;;;;;33.50;27.52;;;18.00;99.90;;;;;;4902820;29;20036;-84
2022/08/24 03:42:06;;;;;;;32.63;27.35;;;18.00;99.90;;;;;;4887113;29;20120;-82
2022/08/24 03:44:32;;;;;;;33.25;27.33;;;17.90;99.90;;;;;;4902514;29;20071;-84
2022/08/24 03:46:57;;;;;;;37.80;28.42;;;17.90;99.90;;;;;;4902822;29;20056;-85
2022/08/24 03:49:23;;;;;;;34.80;28.35;;;17.90;99.90;;;;;;4902828;29;20151;-84
2022/08/24 03:51:49;;;;;;;33.33;27.42;;;17.90;99.90;;;;;;4919769;29;20080;-84
2022/08/24 03:54:16;;;;;;;32.13;25.85;;;18.00;99.90;;;;;;4919498;29;20068;-84
2022/08/24 03:56:42;;;;;;;45.22;33.65;;;17.90;99.90;;;;;;4902412;29;20092;-84
2022/08/24 03:59:09;;;;;;;44.45;33.75;;;17.90;99.90;;;;;;4902550;29;20044;-85
2022/08/24 04:01:36;;;;;;;33.35;27.08;;;17.90;99.90;;;;;;4919235;29;20044;-84
2022/08/24 04:04:02;;;;;;;35.92;27.75;;;18.00;99.90;;;;;;4902562;29;20127;-84
2022/08/24 04:06:28;;;;;;;31.60;26.50;;;18.00;99.90;;;;;;4886650;29;20127;-83
2022/08/24 04:08:55;;;;;;;31.75;25.77;;;18.00;99.90;;;;;;4902277;29;20127;-85
2022/08/24 04:11:23;;;;;;;34.75;27.67;;;17.90;99.90;;;;;;4901951;29;20050;-84
2022/08/24 04:13:51;;;;;;;32.50;27.60;;;18.00;99.90;;;;;;4919413;29;20052;-84
2022/08/24 04:16:19;;;;;;;31.88;26.33;;;18.00;99.90;;;;;;4886681;29;20072;-85
2022/08/24 04:18:45;;;;;;;34.88;27.50;;;17.90;99.90;;;;;;4919429;29;20038;-84
2022/08/24 04:21:22;;;;;;;39.03;31.23;;;18.00;99.90;;;;;;4919186;29;20036;-86
2022/08/24 04:23:49;;;;;;;43.17;32.00;;;18.00;99.90;;;;;;4901958;29;20047;-83
2022/08/24 04:26:16;;;;;;;43.63;32.22;;;17.90;99.90;;;;;;4919137;29;20048;-84
2022/08/24 04:28:42;;;;;;;38.58;30.23;;;17.90;99.90;;;;;;4901774;29;20048;-84
2022/08/24 04:31:08;;;;;;;40.35;30.30;;;17.90;99.90;;;;;;4901768;29;20048;-85
2022/08/24 04:33:34;;;;;;;33.78;27.45;;;17.90;99.90;;;;;;4901379;29;20075;-83
2022/08/24 04:35:59;;;;;;;32.55;27.05;;;17.80;99.90;;;;;;4901509;29;20074;-84
2022/08/24 04:38:25;;;;;;;35.78;29.15;;;17.90;99.90;;;;;;4918743;29;20373;-83
2022/08/24 04:40:51;;;;;;;31.05;25.08;;;17.90;99.90;;;;;;4901740;29;20401;-84
2022/08/24 04:43:17;;;;;;;29.60;25.52;;;17.90;99.90;;;;;;4901572;29;20052;-83
2022/08/24 04:45:46;;;;;;;33.40;26.33;;;17.90;99.90;;;;;;4886077;29;20050;-83
2022/08/24 04:48:13;;;;;;;36.47;28.55;;;17.90;99.90;;;;;;4901568;29;20048;-84
2022/08/24 04:50:41;;;;;;;31.27;25.73;;;17.90;99.90;;;;;;4885964;29;20518;-83
2022/08/24 04:53:08;;;;;;;31.45;26.40;;;17.90;99.90;;;;;;4885977;29;20044;-84
2022/08/24 04:55:44;;;;;;;31.45;25.08;;;17.80;99.90;;;;;;4919324;29;20437;-84
2022/08/24 04:58:12;;;;;;;32.08;24.35;;;17.90;99.90;;;;;;4918710;29;20044;-84
2022/08/24 05:00:38;;;;;;;26.73;22.83;;;17.90;99.90;;;;;;4885632;29;20064;-84
2022/08/24 05:03:04;;;;;;;27.48;22.70;;;17.90;99.90;;;;;;4885905;29;20048;-83
2022/08/24 05:05:29;;;;;;;32.92;25.55;;;17.90;99.90;;;;;;4901914;29;20048;-82
2022/08/24 05:07:55;;;;;;;33.33;26.40;;;17.90;99.90;;;;;;4901465;29;20050;-85
2022/08/24 05:10:21;;;;;;;28.92;24.15;;;17.80;99.90;;;;;;4885854;29;20088;-84
2022/08/24 05:12:46;;;;;;;31.10;25.35;;;17.80;99.90;;;;;;4901018;29;20051;-83
2022/08/24 05:15:12;;;;;;;32.70;26.15;;;17.80;99.90;;;;;;4901183;29;20047;-85
2022/08/24 05:17:42;;;;;;;33.15;26.02;;;17.70;99.90;;;;;;4885662;29;20384;-84
2022/08/24 05:20:10;;;;;;;32.40;25.15;;;17.70;99.90;;;;;;4885569;29;20087;-84
2022/08/24 05:22:36;;;;;;;32.33;25.48;;;17.70;99.90;;;;;;4885178;29;20546;-84
2022/08/24 05:25:05;;;;;;;38.75;29.58;;;17.70;99.90;;;;;;4900629;29;20044;-83
2022/08/24 05:27:32;;;;;;;41.50;31.52;;;17.70;99.90;;;;;;4885626;29;20396;-83
2022/08/24 05:29:58;;;;;;;39.53;29.42;;;17.70;99.90;;;;;;4900770;29;20040;-83
2022/08/24 05:32:24;;;;;;;43.00;30.60;;;17.70;99.90;;;;;;4900632;29;20056;-84
2022/08/24 05:34:49;;;;;;;40.88;30.83;;;17.70;99.90;;;;;;4900607;29;20048;-84
2022/08/24 05:37:15;;;;;;;43.35;33.63;;;17.80;99.90;;;;;;4885234;29;20491;-84
2022/08/24 05:39:41;;;;;;;42.05;32.85;;;17.80;99.90;;;;;;4900487;29;20127;-84
2022/08/24 05:42:07;;;;;;;50.83;36.42;;;17.90;99.90;;;;;;4885341;29;20040;-84
2022/08/24 05:44:32;;;;;;;54.08;37.97;;;17.90;99.90;;;;;;4900759;29;20040;-86
2022/08/24 05:46:59;;;;;;;46.03;35.35;;;17.80;99.90;;;;;;4917960;29;20119;-83
2022/08/24 05:49:26;;;;;;;47.22;33.72;;;17.80;99.90;;;;;;4917789;29;20115;-84
2022/08/24 05:51:52;;;;;;;44.83;33.97;;;17.90;99.90;;;;;;4917367;29;20540;-84
2022/08/24 05:54:18;;;;;;;52.47;39.05;;;18.00;99.90;;;;;;4900459;29;20065;-83
2022/08/24 05:56:45;;;;;;;54.03;38.03;;;18.00;99.90;;;;;;4900197;29;20564;-84
2022/08/24 05:59:11;;;;;;;48.78;34.72;;;18.00;99.90;;;;;;4917218;29;20044;-84
2022/08/24 06:01:37;;;;;;;47.83;35.92;;;18.00;99.90;;;;;;4900113;29;20484;-85
2022/08/24 06:04:04;;;;;;;57.15;41.15;;;18.10;99.90;;;;;;4900238;29;20050;-84
2022/08/24 06:06:30;;;;;;;56.13;40.05;;;18.20;99.90;;;;;;4917187;29;20041;-84
2022/08/24 06:08:58;;;;;;;54.20;38.13;;;18.20;99.90;;;;;;4900123;29;20044;-84
2022/08/24 06:11:36;;;;;;;50.20;38.20;;;18.30;99.90;;;;;;4917254;29;20040;-85
2022/08/24 06:14:13;;;;;;;50.50;37.90;;;18.30;99.90;;;;;;4900289;29;20051;-85
2022/08/24 06:16:41;;;;;;;49.45;37.78;;;18.40;99.90;;;;;;4900049;29;20059;-84
2022/08/24 06:19:09;;;;;;;44.22;34.53;;;18.50;99.90;;;;;;4900184;29;20511;-84
2022/08/24 06:21:36;;;;;;;48.50;37.28;;;18.60;99.90;;;;;;4917114;29;20040;-83
2022/08/24 06:24:03;;;;;;;45.83;36.33;;;18.60;99.90;;;;;;4900113;29;20170;-84
2022/08/24 06:29:13;;;;;;;48.90;37.63;;;18.70;99.90;;;;;;4900066;29;20186;-84
2022/08/24 06:31:41;;;;;;;47.75;36.50;;;18.80;99.90;;;;;;4916897;29;20123;-84
2022/08/24 06:34:11;;;;;;;48.15;38.97;;;18.90;99.90;;;;;;4899822;29;20488;-84
2022/08/24 06:36:37;;;;;;;43.58;35.00;;;18.90;99.90;;;;;;4885792;29;20453;-85
2022/08/24 06:39:03;;;;;;;46.30;35.03;;;19.00;99.90;;;;;;4920459;29;20038;-85
2022/08/24 06:41:29;;;;;;;43.83;34.47;;;19.00;99.90;;;;;;4920683;29;20123;-84
2022/08/24 06:43:55;;;;;;;44.08;35.83;;;19.10;99.90;;;;;;4903798;29;20127;-84
2022/08/24 06:46:20;;;;;;;41.67;33.30;;;19.10;99.90;;;;;;4903658;29;20092;-85
2022/08/24 06:48:47;;;;;;;41.88;33.28;;;19.20;99.90;;;;;;4903944;29;20044;-85
2022/08/24 06:51:15;;;;;;;43.15;33.00;;;19.30;99.90;;;;;;4903808;29;20052;-84
2022/08/24 06:53:42;;;;;;;47.10;34.60;;;19.40;99.90;;;;;;4903446;29;20054;-85
2022/08/24 06:56:08;;;;;;;44.13;33.83;;;19.40;99.90;;;;;;4921030;29;20044;-84
2022/08/24 06:58:35;;;;;;;38.08;31.88;;;19.50;99.90;;;;;;4903516;29;20086;-85
2022/08/24 07:01:19;;;;;;;39.25;32.42;;;19.60;99.90;;;;;;4887737;29;20082;-85
2022/08/24 07:03:45;;;;;;;42.22;32.47;;;19.60;99.90;;;;;;4903413;29;20052;-83
2022/08/24 07:06:13;;;;;;;35.63;29.05;;;19.70;99.90;;;;;;4903323;29;20083;-86
2022/08/24 07:08:41;;;;;;;35.55;28.10;;;19.80;99.90;;;;;;4903100;29;20059;-85
2022/08/24 07:11:08;;;;;;;39.05;28.98;;;19.80;99.90;;;;;;4903284;29;20122;-84
2022/08/24 07:13:34;;;;;;;31.50;25.58;;;19.90;99.90;;;;;;4903223;29;20056;-85
2022/08/24 07:16:00;;;;;;;31.58;25.08;;;20.00;99.90;;;;;;4887604;29;20404;-84
2022/08/24 07:18:26;;;;;;;33.65;24.27;;;20.00;99.90;;;;;;4903445;29;20404;-84
2022/08/24 07:20:52;;;;;;;29.63;23.42;;;20.10;99.90;;;;;;4903217;29;20043;-84
2022/08/24 07:23:19;;;;;;;28.05;20.40;;;20.20;99.90;;;;;;4903585;29;20171;-84
2022/08/24 07:25:46;;;;;;;26.05;19.33;;;20.20;99.90;;;;;;4920220;29;20155;-84
2022/08/24 07:28:12;;;;;;;28.17;18.85;;;20.40;99.90;;;;;;4903188;29;20079;-84
2022/08/24 07:30:40;;;;;;;18.38;15.98;;;20.50;99.90;;;;;;4902922;29;20051;-85
2022/08/24 07:33:06;;;;;;;23.92;17.75;;;20.60;99.90;;;;;;4920195;29;20041;-85
2022/08/24 07:35:32;;;;;;;21.85;16.77;;;20.70;99.90;;;;;;4903121;29;20484;-84
2022/08/24 07:37:59;;;;;;;21.65;16.85;;;20.80;99.90;;;;;;4903308;29;20555;-85
2022/08/24 07:40:26;;;;;;;22.05;16.70;;;20.90;99.90;;;;;;4887288;29;20511;-86
2022/08/24 07:42:53;;;;;;;22.25;14.18;;;21.00;99.90;;;;;;4902935;29;20052;-85
2022/08/24 07:45:21;;;;;;;19.92;13.55;;;21.10;99.90;;;;;;4903004;29;20044;-85
2022/08/24 07:47:47;;;;;;;15.27;12.10;;;21.20;99.90;;;;;;4920343;29;20040;-85
2022/08/24 07:50:14;;;;;;;18.27;13.02;;;21.30;99.90;;;;;;4902553;29;20492;-85
2022/08/24 07:52:41;;;;;;;19.05;11.73;;;21.40;99.90;;;;;;4902941;29;20096;-85
2022/08/24 07:55:08;;;;;;;19.52;11.45;;;21.40;99.90;;;;;;4919800;29;20036;-86
2022/08/24 07:57:34;;;;;;;13.70;9.65;;;21.40;99.90;;;;;;4919872;29;20119;-85
2022/08/24 08:00:05;;;;;;;13.88;10.20;;;21.50;99.90;;;;;;4919657;29;20040;-84
2022/08/24 08:02:32;;;;;;;14.30;9.20;;;21.60;99.90;;;;;;4902586;29;20399;-84
2022/08/24 08:04:58;;;;;;;11.85;9.25;;;21.80;99.90;;;;;;4902476;29;20055;-84
2022/08/24 08:07:23;;;;;;;11.63;7.60;;;21.80;99.90;;;;;;4902437;29;20048;-85
2022/08/24 08:09:49;;;;;;;11.07;6.45;;;21.90;99.90;;;;;;4902771;29;20048;-84
2022/08/24 08:12:15;;;;;;;9.57;7.55;;;22.00;99.90;;;;;;4902067;29;20404;-84
2022/08/24 08:14:41;;;;;;;11.95;7.57;;;22.10;99.90;;;;;;4902187;29;20048;-84
2022/08/24 08:17:06;;;;;;;12.30;10.20;;;22.20;99.90;;;;;;4902142;29;20050;-84
2022/08/24 08:19:33;;;;;;;14.93;9.50;;;22.30;99.90;;;;;;4919140;29;20040;-85
2022/08/24 08:24:44;;;;;;;12.93;9.00;;;22.30;99.90;;;;;;4902371;29;20047;-85
2022/08/24 08:27:11;;;;;;;13.65;9.05;;;22.50;99.90;;;;;;4902074;29;20355;-85
2022/08/24 08:29:41;;;;;;;13.20;8.70;;;22.60;99.90;;;;;;4919140;29;20047;-85
2022/08/24 08:32:09;;;;;;;11.43;8.55;;;22.70;99.90;;;;;;4919917;29;20376;-84
2022/08/24 08:34:35;;;;;;;12.05;7.68;;;22.80;99.90;;;;;;4902108;29;20052;-85
2022/08/24 08:37:02;;;;;;;11.05;9.07;;;22.80;99.90;;;;;;4901923;29;20067;-84
2022/08/24 08:39:28;;;;;;;14.13;8.43;;;23.00;99.90;;;;;;4901982;29;20080;-84
2022/08/24 08:42:31;;;;;;;12.27;8.32;;;23.10;99.90;;;;;;4902132;29;20068;-86
2022/08/24 08:45:04;;;;;;;11.60;7.68;;;23.20;99.90;;;;;;4902056;29;20052;-84
2022/08/24 08:48:00;;;;;;;13.90;8.00;;;23.30;99.90;;;;;;4918794;29;20054;-85
2022/08/24 08:51:04;;;;;;;16.20;7.97;;;23.40;99.90;;;;;;4886435;29;20054;-84
2022/08/24 08:54:09;;;;;;;12.13;7.32;;;23.60;99.90;;;;;;4884979;29;20063;-86
2022/08/24 08:57:03;;;;;;;12.37;6.30;;;23.60;99.90;;;;;;4918679;29;20115;-85
2022/08/24 08:59:47;;;;;;;15.43;7.45;;;23.80;99.90;;;;;;4885768;29;20113;-85
2022/08/24 09:02:28;;;;;;;7.97;5.70;;;23.90;99.90;;;;;;4901053;29;20040;-86
2022/08/24 09:05:35;;;;;;;10.07;6.13;;;24.10;99.90;;;;;;4885829;29;20055;-85
2022/08/24 09:08:25;;;;;;;11.77;5.20;;;24.30;99.90;;;;;;4901283;29;20040;-85
2022/08/24 09:11:23;;;;;;;12.07;5.63;;;24.50;99.90;;;;;;4901099;29;20048;-84
2022/08/24 09:14:13;;;;;;;7.30;5.35;;;24.60;99.90;;;;;;4901838;29;20048;-84
2022/08/24 09:17:07;;;;;;;9.27;5.00;;;24.70;99.90;;;;;;4900975;29;20087;-83
2022/08/24 09:19:58;;;;;;;8.18;5.22;;;24.90;99.90;;;;;;4901169;29;20075;-85
2022/08/24 09:22:24;;;;;;;6.78;4.80;;;25.00;99.90;;;;;;4901115;29;20044;-85
2022/08/24 09:25:00;;;;;;;7.80;4.75;;;25.20;99.90;;;;;;4885354;29;20048;-86
2022/08/24 09:27:46;;;;;;;9.30;4.82;;;25.20;99.90;;;;;;4901619;29;20048;-84
2022/08/24 09:30:22;;;;;;;8.38;4.70;;;25.30;99.90;;;;;;4900873;29;20051;-86
2022/08/24 09:32:57;;;;;;;7.07;4.30;;;25.40;99.90;;;;;;4901646;29;20039;-85
2022/08/24 09:35:38;;;;;;;7.10;4.07;;;25.50;99.90;;;;;;4900966;29;20540;-85
2022/08/24 09:38:22;;;;;;;7.78;3.10;;;25.60;99.90;;;;;;4901071;29;20050;-86
2022/08/24 09:41:15;;;;;;;8.80;4.72;;;25.70;99.90;;;;;;4918054;29;20126;-86
2022/08/24 09:44:19;;;;;;;10.25;4.55;;;25.90;99.90;;;;;;4918022;29;20481;-85
2022/08/24 09:47:02;;;;;;;3.95;2.38;;;26.10;99.90;;;;;;4916900;29;20052;-86
2022/08/24 09:49:49;;;;;;;3.58;2.47;;;26.20;99.90;;;;;;4917603;29;20040;-84
2022/08/24 09:52:20;;;;;;;7.28;2.58;;;26.20;99.90;;;;;;4885086;29;20048;-85
2022/08/24 09:54:59;;;;;;;3.95;2.63;;;26.30;99.90;;;;;;4917745;29;20055;-86
2022/08/24 09:58:13;;;;;;;4.68;2.33;;;26.30;99.90;;;;;;4885224;29;20451;-84
2022/08/24 10:01:05;;;;;;;3.33;2.00;;;26.40;99.90;;;;;;4915484;29;20048;-85
2022/08/24 10:03:49;;;;;;;3.38;2.63;;;26.50;99.90;;;;;;4874909;29;20056;-85
2022/08/24 10:06:56;;;;;;;4.40;2.55;;;26.60;99.90;;;;;;4917640;29;20044;-85
2022/08/24 10:10:08;;;;;;;5.63;2.85;;;26.60;99.90;;;;;;4900847;29;20048;-86
2022/08/24 10:12:53;;;;;;;7.22;3.00;;;26.70;99.90;;;;;;4875494;29;20060;-84
2022/08/24 10:15:35;;;;;;;4.90;2.72;;;26.80;99.90;;;;;;4900538;29;20497;-85
2022/08/24 10:18:21;;;;;;;4.13;1.90;;;26.90;99.90;;;;;;4900437;29;20516;-83
2022/08/24 10:21:14;;;;;;;7.10;2.20;;;27.00;99.90;;;;;;4916903;29;20056;-84
2022/08/24 10:23:53;;;;;;;4.32;2.10;;;27.10;99.90;;;;;;4900074;29;20080;-84
2022/08/24 10:26:33;;;;;;;5.18;2.15;;;27.10;99.90;;;;;;4917287;29;20489;-86
2022/08/24 10:29:20;;;;;;;3.55;2.13;;;27.20;99.90;;;;;;4900361;29;20052;-84
2022/08/24 10:31:47;;;;;;;3.83;2.00;;;27.30;99.90;;;;;;4917207;29;20040;-85
2022/08/24 10:34:27;;;;;;;7.03;2.25;;;27.30;99.90;;;;;;4900354;29;20536;-86
2022/08/24 10:37:24;;;;;;;4.35;2.35;;;27.30;99.90;;;;;;4900162;29;20412;-85
2022/08/24 10:40:21;;;;;;;7.30;2.20;;;27.40;99.90;;;;;;4901907;29;20044;-85
2022/08/24 10:46:13;;;;;;;6.57;3.15;;;27.50;99.90;;;;;;4921056;29;20055;-82
2022/08/24 10:48:51;;;;;;;4.63;2.15;;;27.60;99.90;;;;;;4911397;29;20040;-82
2022/08/24 10:51:36;;;;;;;5.22;2.90;;;27.60;99.90;;;;;;4919624;29;20052;-81
2022/08/24 10:54:03;;;;;;;6.38;3.50;;;27.60;99.90;;;;;;4906134;29;20044;-86
2022/08/24 10:56:58;;;;;;;6.72;3.90;;;27.60;99.90;;;;;;4905466;29;20362;-83
2022/08/24 10:59:35;;;;;;;6.27;3.30;;;27.80;99.90;;;;;;4903820;29;20048;-86
2022/08/24 11:02:11;;;;;;;3.78;1.95;;;27.90;99.90;;;;;;4918959;29;20075;-86
2022/08/24 11:04:38;;;;;;;4.97;1.90;;;28.00;99.90;;;;;;4902322;29;20413;-87
2022/08/24 11:07:20;;;;;;;4.82;2.47;;;28.20;99.90;;;;;;4901537;29;20049;-86
2022/08/24 11:09:52;;;;;;;7.80;2.55;;;28.10;99.90;;;;;;4917926;29;20040;-86
2022/08/24 11:12:41;;;;;;;8.32;3.38;;;28.30;99.90;;;;;;4884814;29;20051;-84
2022/08/24 11:15:16;;;;;;;4.45;2.80;;;28.40;99.90;;;;;;4917772;29;20044;-85
2022/08/24 11:17:56;;;;;;;5.00;3.17;;;28.40;99.90;;;;;;4900564;29;20054;-86
2022/08/24 11:20:31;;;;;;;5.95;2.17;;;28.50;99.90;;;;;;4899902;29;20181;-87
2022/08/24 11:23:01;;;;;;;4.07;2.03;;;28.50;99.90;;;;;;4899880;29;20507;-85
2022/08/24 11:25:31;;;;;;;4.60;2.50;;;28.60;99.90;;;;;;4920644;29;20051;-85
2022/08/24 11:28:09;;;;;;;7.78;2.22;;;28.70;99.90;;;;;;4904320;29;20036;-84
2022/08/24 11:30:39;;;;;;;5.63;1.85;;;28.80;99.90;;;;;;4903532;29;20070;-86
2022/08/24 11:33:25;;;;;;;3.40;1.85;;;28.80;99.90;;;;;;4920005;29;20044;-86
2022/08/24 11:35:51;;;;;;;6.93;1.50;;;29.10;99.90;;;;;;4919976;29;20040;-85
2022/08/24 11:38:33;;;;;;;5.35;1.35;;;29.10;99.90;;;;;;4920111;29;20036;-87
2022/08/24 11:41:18;;;;;;;4.10;1.60;;;29.00;99.90;;;;;;4920129;29;20488;-85
2022/08/24 11:44:00;;;;;;;3.85;1.75;;;29.00;99.90;;;;;;4902999;29;20512;-85
2022/08/24 11:47:01;;;;;;;3.38;1.80;;;29.10;99.90;;;;;;4902846;29;20449;-85
2022/08/24 11:49:51;;;;;;;4.95;1.90;;;29.20;99.90;;;;;;4910395;29;20139;-84
2022/08/24 11:52:35;;;;;;;2.85;1.30;;;29.30;99.90;;;;;;4903145;29;20103;-87
2022/08/24 11:55:31;;;;;;;3.47;1.55;;;29.40;99.90;;;;;;4902986;29;20389;-86
2022/08/24 11:58:01;;;;;;;2.58;1.50;;;29.60;99.90;;;;;;4919817;29;20163;-85
2022/08/24 12:00:45;;;;;;;3.50;1.40;;;29.50;99.90;;;;;;4919158;29;20040;-85
2022/08/24 12:03:51;;;;;;;2.00;1.30;;;29.20;99.90;;;;;;4919833;29;20043;-84
2022/08/24 12:06:53;;;;;;;3.70;1.60;;;29.10;99.90;;;;;;4902581;29;20055;-87
2022/08/24 12:09:51;;;;;;;3.15;1.85;;;29.20;99.90;;;;;;4902342;29;20099;-84
2022/08/24 12:12:39;;;;;;;3.72;1.58;;;29.30;99.90;;;;;;4919460;29;20064;-87
2022/08/24 12:15:11;;;;;;;4.00;1.60;;;29.30;99.90;;;;;;4902157;29;20520;-85
2022/08/24 12:17:51;;;;;;;1.58;1.10;;;29.20;99.90;;;;;;4887010;29;20102;-83
2022/08/24 12:20:40;;;;;;;3.63;1.50;;;29.20;99.90;;;;;;4902456;29;20506;-86
2022/08/24 12:23:36;;;;;;;4.65;1.80;;;29.10;99.90;;;;;;4903205;29;20040;-85
2022/08/24 12:26:06;;;;;;;3.92;1.50;;;29.10;99.90;;;;;;4901095;29;20496;-87
2022/08/24 12:28:47;;;;;;;3.22;1.30;;;28.90;99.90;;;;;;4902320;29;20432;-86
2022/08/24 12:31:33;;;;;;;2.65;1.30;;;28.60;99.90;;;;;;4902094;29;20048;-85
2022/08/24 12:34:07;;;;;;;2.92;1.42;;;28.40;99.90;;;;;;4901459;29;20058;-87
2022/08/24 12:36:45;;;;;;;2.08;1.40;;;28.30;99.90;;;;;;4886030;29;20104;-86
2022/08/24 12:39:14;;;;;;;2.97;1.65;;;28.20;99.90;;;;;;4902067;29;20070;-87
2022/08/24 12:41:51;;;;;;;2.80;1.27;;;28.10;99.90;;;;;;4918789;29;20036;-86
2022/08/24 12:44:20;;;;;;;2.42;1.42;;;28.20;99.90;;;;;;4902151;29;20484;-85
2022/08/24 12:46:53;;;;;;;3.22;1.60;;;28.10;99.90;;;;;;4902064;29;20054;-85
2022/08/24 12:49:22;;;;;;;3.00;1.50;;;28.20;99.90;;;;;;4902198;29;20036;-86
2022/08/24 12:52:10;;;;;;;5.38;1.42;;;28.50;99.90;;;;;;4901893;29;20063;-86
2022/08/24 12:54:39;;;;;;;2.58;1.23;;;29.00;99.90;;;;;;4919125;29;20091;-86
2022/08/24 12:57:31;;;;;;;3.53;1.48;;;29.20;99.90;;;;;;4919101;29;20043;-86
2022/08/24 13:00:05;;;;;;;3.15;1.27;;;29.10;99.90;;;;;;4901636;29;20040;-85
2022/08/24 13:02:44;;;;;;;1.77;1.20;;;28.90;99.90;;;;;;4901605;29;20131;-85
2022/08/24 13:05:18;;;;;;;3.17;1.30;;;28.80;99.90;;;;;;4886609;29;20048;-85
2022/08/24 13:07:50;;;;;;;3.72;1.65;;;28.80;99.90;;;;;;4919393;29;20489;-85
2022/08/24 13:10:37;;;;;;;4.22;1.33;;;28.60;99.90;;;;;;4902969;29;20048;-84
2022/08/24 13:13:03;;;;;;;4.28;1.15;;;28.50;99.90;;;;;;4886843;29;20485;-85
2022/08/24 13:15:29;;;;;;;4.25;1.20;;;28.60;99.90;;;;;;4903497;29;20068;-84
2022/08/24 13:17:57;;;;;;;2.85;1.30;;;28.80;99.90;;;;;;4902340;29;20535;-86
2022/08/24 13:20:27;;;;;;;3.63;1.33;;;29.10;99.90;;;;;;4902232;29;20052;-86
2022/08/24 13:23:09;;;;;;;1.60;1.10;;;29.20;99.90;;;;;;4902842;29;20152;-87
2022/08/24 13:25:54;;;;;;;2.08;1.10;;;29.20;99.90;;;;;;4902323;29;20123;-85
2022/08/24 13:28:23;;;;;;;3.40;1.20;;;29.00;99.90;;;;;;4901536;29;20076;-86
2022/08/24 13:31:01;;;;;;;3.33;1.10;;;28.90;99.90;;;;;;4901611;29;20044;-86
2022/08/24 13:33:47;;;;;;;2.63;1.20;;;29.00;99.90;;;;;;4901816;29;20056;-85
2022/08/24 13:36:37;;;;;;;2.33;1.42;;;29.10;99.90;;;;;;4901340;29;20055;-85
2022/08/24 13:39:06;;;;;;;2.58;1.20;;;29.00;99.90;;;;;;4918790;29;20043;-86
2022/08/24 13:41:48;;;;;;;1.98;1.10;;;29.20;99.90;;;;;;4901279;29;20044;-83
2022/08/24 13:44:27;;;;;;;1.60;1.00;;;29.40;99.90;;;;;;4885417;29;20040;-87
2022/08/24 13:47:15;;;;;;;2.75;1.05;;;29.70;99.90;;;;;;4901771;29;20083;-83
2022/08/24 13:50:02;;;;;;;2.28;1.10;;;29.80;99.90;;;;;;4901020;29;20076;-84
2022/08/24 13:53:22;;;;;;;2.42;0.82;;;29.80;99.30;;;;;;4917642;29;20040;-83
2022/08/24 13:55:54;;;;;;;2.85;1.00;;;30.00;99.50;;;;;;4859821;29;20136;-84
2022/08/24 13:59:05;;;;;;;2.22;1.13;;;30.10;99.60;;;;;;4915878;29;20586;-86
2022/08/24 14:01:59;;;;;;;1.98;1.00;;;30.20;99.90;;;;;;4895233;29;20405;-86
2022/08/24 14:04:24;;;;;;;1.77;1.00;;;30.50;99.70;;;;;;4898599;29;20051;-86
2022/08/24 14:07:02;;;;;;;2.20;1.00;;;30.60;98.60;;;;;;4900747;29;20123;-86
2022/08/24 14:09:49;;;;;;;4.22;1.25;;;30.80;99.00;;;;;;4900419;29;20039;-86
2022/08/24 14:12:28;;;;;;;2.75;1.00;;;30.90;98.00;;;;;;4917495;29;20126;-84
2022/08/24 14:14:54;;;;;;;2.63;1.00;;;30.90;97.40;;;;;;4917373;29;20076;-84
2022/08/24 14:17:52;;;;;;;2.20;0.88;;;31.00;97.70;;;;;;4917345;29;20044;-84
2022/08/24 14:20:55;;;;;;;1.42;0.90;;;31.10;97.50;;;;;;4885194;29;20123;-85
2022/08/24 14:23:25;;;;;;;1.63;0.77;;;31.10;97.20;;;;;;4917730;29;20549;-84
2022/08/24 14:26:30;;;;;;;3.67;0.75;;;31.10;95.50;;;;;;4917481;29;20047;-83
2022/08/24 14:29:18;;;;;;;2.22;0.85;;;31.10;94.70;;;;;;4917148;29;20083;-86
2022/08/24 14:31:59;;;;;;;1.63;0.90;;;31.10;95.30;;;;;;4917118;29;20155;-85
2022/08/24 14:34:32;;;;;;;1.75;0.80;;;31.10;95.60;;;;;;4884591;29;20131;-85
2022/08/24 14:37:06;;;;;;;0.93;0.70;;;31.10;95.60;;;;;;4900006;29;20422;-88
2022/08/24 14:39:44;;;;;;;4.85;0.95;;;31.10;95.20;;;;;;4900309;29;20121;-86
2022/08/24 14:42:37;;;;;;;4.00;1.33;;;30.80;95.50;;;;;;4917113;29;20067;-86
2022/08/24 14:45:13;;;;;;;1.60;0.80;;;30.60;96.30;;;;;;4900170;29;20086;-85
2022/08/24 14:48:11;;;;;;;1.63;0.88;;;30.30;95.60;;;;;;4884756;29;20112;-85
2022/08/24 14:51:06;;;;;;;3.38;1.00;;;30.00;96.70;;;;;;4872194;29;20056;-86
2022/08/24 14:54:07;;;;;;;2.22;0.90;;;29.80;96.90;;;;;;4899910;29;20047;-85
2022/08/24 14:56:46;;;;;;;25.02;12.98;;;29.60;98.20;;;;;;4900534;29;20048;-85
2022/08/24 14:59:33;;;;;;;7.90;5.22;;;29.60;98.40;;;;;;4886346;29;20047;-84
2022/08/24 15:02:28;;;;;;;4.30;2.50;;;29.70;98.20;;;;;;4920476;29;20523;-87
2022/08/24 15:05:21;;;;;;;4.38;3.90;;;29.80;99.20;;;;;;4904979;29;20099;-85
2022/08/24 15:07:59;;;;;;;2.22;1.30;;;29.80;99.20;;;;;;4888242;29;20500;-85
2022/08/24 15:10:42;;;;;;;1.77;1.10;;;29.70;98.50;;;;;;4903566;29;20048;-85
2022/08/24 15:13:26;;;;;;;5.03;1.50;;;29.50;99.10;;;;;;4920553;29;20050;-84
2022/08/24 15:16:02;;;;;;;3.17;1.10;;;29.30;99.90;;;;;;4920788;29;20040;-85
2022/08/24 15:18:41;;;;;;;2.67;1.30;;;29.20;99.90;;;;;;4904312;29;20080;-85
2022/08/24 15:21:09;;;;;;;5.03;1.73;;;29.10;99.90;;;;;;4903803;29;20044;-86
2022/08/24 15:24:14;;;;;;;3.70;1.40;;;29.10;99.90;;;;;;4903608;29;20403;-85
2022/08/24 15:26:56;;;;;;;3.40;1.67;;;29.00;99.90;;;;;;4921009;29;20378;-85
2022/08/24 15:29:26;;;;;;;2.25;1.40;;;28.90;99.90;;;;;;4903481;29;20063;-86
2022/08/24 15:32:10;;;;;;;2.60;1.33;;;28.80;99.90;;;;;;4920555;29;20072;-84
2022/08/24 15:34:47;;;;;;;2.72;1.55;;;28.70;99.90;;;;;;4903383;29;20052;-86
2022/08/24 15:37:39;;;;;;;2.95;1.30;;;28.50;99.90;;;;;;4903416;29;20055;-85
2022/08/24 15:40:20;;;;;;;7.18;3.05;;;28.40;99.90;;;;;;4920161;29;20048;-83
2022/08/24 15:42:49;;;;;;;4.97;2.47;;;28.40;99.90;;;;;;4887504;29;20504;-85
2022/08/24 15:45:16;;;;;;;6.03;3.00;;;28.30;99.90;;;;;;4903153;29;20127;-86
2022/08/24 15:47:44;;;;;;;9.65;4.30;;;28.30;99.90;;;;;;4903371;29;20481;-86
2022/08/24 15:50:22;;;;;;;11.88;5.10;;;28.30;99.90;;;;;;4903472;29;20052;-87
2022/08/24 15:53:06;;;;;;;9.18;4.20;;;28.40;99.90;;;;;;4903041;29;20139;-85
2022/08/24 15:55:41;;;;;;;13.80;7.43;;;28.30;99.90;;;;;;4904362;29;20342;-86
2022/08/24 15:58:29;;;;;;;3.50;2.08;;;28.30;99.90;;;;;;4920512;29;20385;-84
2022/08/24 16:03:52;;;;;;;5.97;2.97;;;28.30;99.90;;;;;;4903404;29;20415;-86
2022/08/24 16:06:30;;;;;;;7.22;2.22;;;28.50;99.90;;;;;;4920377;29;20048;-86
2022/08/24 16:09:13;;;;;;;6.00;2.17;;;28.60;99.90;;;;;;4919699;29;20499;-87
2022/08/24 16:11:44;;;;;;;4.35;1.30;;;28.70;99.90;;;;;;4903410;29;20511;-85
2022/08/24 16:14:28;;;;;;;3.22;1.30;;;28.60;99.90;;;;;;4919821;29;20043;-85
2022/08/24 16:16:55;;;;;;;4.53;1.97;;;28.60;99.90;;;;;;4920348;29;20096;-86
2022/08/24 16:19:27;;;;;;;2.63;1.33;;;28.50;99.90;;;;;;4903212;29;20436;-86
2022/08/24 16:22:01;;;;;;;3.63;1.40;;;28.50;99.90;;;;;;4903169;29;20055;-87
2022/08/24 16:24:32;;;;;;;2.38;1.10;;;28.50;99.90;;;;;;4919827;29;20047;-86
2022/08/24 16:27:00;;;;;;;5.25;1.20;;;28.40;99.90;;;;;;4919855;29;20044;-87
2022/08/24 16:29:35;;;;;;;2.80;1.23;;;28.40;99.90;;;;;;4902702;29;20059;-85
2022/08/24 16:32:24;;;;;;;3.45;1.00;;;28.20;99.90;;;;;;4902476;29;20517;-85